<?xml version="1.0" encoding="UTF-8" standalone="no" ?><gpx xmlns="http://www.topografix.com/GPX/1/1" xmlns:gpxx="http://www.garmin.com/xmlschemas/GpxExtensions/v3" xmlns:wptx1="http://www.garmin.com/xmlschemas/WaypointExtension/v1" xmlns:gpxtpx="http://www.garmin.com/xmlschemas/TrackPointExtension/v1" creator="GuideVTT.com" version="1.1" xmlns:xsi="http://www.w3.org/2001/XMLSchema-instance" xsi:schemaLocation="http://www.topografix.com/GPX/1/1 http://www.topografix.com/GPX/1/1/gpx.xsd http://www.garmin.com/xmlschemas/GpxExtensions/v3 http://www8.garmin.com/xmlschemas/GpxExtensionsv3.xsd http://www.garmin.com/xmlschemas/WaypointExtension/v1 http://www8.garmin.com/xmlschemas/WaypointExtensionv1.xsd http://www.garmin.com/xmlschemas/TrackPointExtension/v1 http://www.garmin.com/xmlschemas/TrackPointExtensionv1.xsd">
<metadata><link href="http://www.garmin.com"><text>Garmin International</text></link><time>2013-06-22T15:13:50Z</time></metadata>
<trk><name>15mai07.gpx</name><extensions><gpxx:TrackExtension><gpxx:DisplayColor>Cyan</gpxx:DisplayColor></gpxx:TrackExtension></extensions><trkseg>
<trkpt lat="43.17688300" lon="0.28671700"><ele>517</ele><time>2007-05-15T07:46:53Z</time></trkpt>
<trkpt lat="43.17673300" lon="0.28706700"><ele>516</ele><time>2007-05-15T07:48:26Z</time></trkpt>
<trkpt lat="43.17645000" lon="0.28890000"><ele>516</ele><time>2007-05-15T07:49:37Z</time></trkpt>
<trkpt lat="43.17636700" lon="0.28936700"><ele>518</ele><time>2007-05-15T07:49:49Z</time></trkpt>
<trkpt lat="43.17621700" lon="0.28990000"><ele>521</ele><time>2007-05-15T07:50:03Z</time></trkpt>
<trkpt lat="43.17613300" lon="0.29013300"><ele>520</ele><time>2007-05-15T07:50:10Z</time></trkpt>
<trkpt lat="43.17598300" lon="0.29051700"><ele>524</ele><time>2007-05-15T07:50:23Z</time></trkpt>
<trkpt lat="43.17586700" lon="0.29115000"><ele>522</ele><time>2007-05-15T07:50:40Z</time></trkpt>
<trkpt lat="43.17581700" lon="0.29148300"><ele>521</ele><time>2007-05-15T07:50:48Z</time></trkpt>
<trkpt lat="43.17351700" lon="0.29061700"><ele>526</ele><time>2007-05-15T07:51:45Z</time></trkpt>
<trkpt lat="43.17301700" lon="0.29040000"><ele>523</ele><time>2007-05-15T07:51:54Z</time></trkpt>
<trkpt lat="43.17275000" lon="0.29013300"><ele>521</ele><time>2007-05-15T07:51:59Z</time></trkpt>
<trkpt lat="43.17248300" lon="0.29055000"><ele>522</ele><time>2007-05-15T07:52:07Z</time></trkpt>
<trkpt lat="43.17250000" lon="0.29110000"><ele>526</ele><time>2007-05-15T07:52:17Z</time></trkpt>
<trkpt lat="43.17271700" lon="0.29258300"><ele>528</ele><time>2007-05-15T07:52:45Z</time></trkpt>
<trkpt lat="43.17270000" lon="0.29325000"><ele>531</ele><time>2007-05-15T07:52:57Z</time></trkpt>
<trkpt lat="43.17250000" lon="0.29583300"><ele>530</ele><time>2007-05-15T07:53:37Z</time></trkpt>
<trkpt lat="43.17228300" lon="0.29668300"><ele>528</ele><time>2007-05-15T07:53:49Z</time></trkpt>
<trkpt lat="43.17248300" lon="0.30388300"><ele>526</ele><time>2007-05-15T07:55:33Z</time></trkpt>
<trkpt lat="43.17225000" lon="0.30663300"><ele>524</ele><time>2007-05-15T07:56:10Z</time></trkpt>
<trkpt lat="43.17131700" lon="0.31038300"><ele>523</ele><time>2007-05-15T07:56:59Z</time></trkpt>
<trkpt lat="43.17058300" lon="0.31156700"><ele>528</ele><time>2007-05-15T07:57:21Z</time></trkpt>
<trkpt lat="43.16995000" lon="0.31183300"><ele>528</ele><time>2007-05-15T07:57:34Z</time></trkpt>
<trkpt lat="43.16820000" lon="0.31245000"><ele>532</ele><time>2007-05-15T07:58:10Z</time></trkpt>
<trkpt lat="43.16368300" lon="0.31591700"><ele>547</ele><time>2007-05-15T08:00:11Z</time></trkpt>
<trkpt lat="43.15936700" lon="0.31685000"><ele>547</ele><time>2007-05-15T08:01:32Z</time></trkpt>
<trkpt lat="43.15593300" lon="0.31886700"><ele>550</ele><time>2007-05-15T08:02:39Z</time></trkpt>
<trkpt lat="43.15356700" lon="0.31945000"><ele>548</ele><time>2007-05-15T08:03:25Z</time></trkpt>
<trkpt lat="43.14805000" lon="0.32075000"><ele>560</ele><time>2007-05-15T08:05:08Z</time></trkpt>
<trkpt lat="43.14698300" lon="0.32130000"><ele>560</ele><time>2007-05-15T08:05:29Z</time></trkpt>
<trkpt lat="43.14593300" lon="0.32265000"><ele>564</ele><time>2007-05-15T08:05:59Z</time></trkpt>
<trkpt lat="43.14616700" lon="0.32296700"><ele>564</ele><time>2007-05-15T08:06:09Z</time></trkpt>
<trkpt lat="43.14625000" lon="0.32351700"><ele>564</ele><time>2007-05-15T08:06:19Z</time></trkpt>
<trkpt lat="43.14600000" lon="0.32541700"><ele>568</ele><time>2007-05-15T08:07:02Z</time></trkpt>
<trkpt lat="43.14596700" lon="0.32578300"><ele>567</ele><time>2007-05-15T08:07:30Z</time></trkpt>
<trkpt lat="43.14590000" lon="0.32603300"><ele>569</ele><time>2007-05-15T08:07:46Z</time></trkpt>
<trkpt lat="43.14581700" lon="0.32691700"><ele>571</ele><time>2007-05-15T08:08:18Z</time></trkpt>
<trkpt lat="43.14560000" lon="0.32876700"><ele>570</ele><time>2007-05-15T08:09:07Z</time></trkpt>
<trkpt lat="43.14211700" lon="0.32831700"><ele>574</ele><time>2007-05-15T08:10:30Z</time></trkpt>
<trkpt lat="43.14193300" lon="0.32946700"><ele>575</ele><time>2007-05-15T08:11:02Z</time></trkpt>
<trkpt lat="43.14138300" lon="0.33358300"><ele>563</ele><time>2007-05-15T08:12:02Z</time></trkpt>
<trkpt lat="43.14140000" lon="0.33396700"><ele>561</ele><time>2007-05-15T08:12:08Z</time></trkpt>
<trkpt lat="43.14061700" lon="0.33465000"><ele>561</ele><time>2007-05-15T08:12:29Z</time></trkpt>
<trkpt lat="43.14043300" lon="0.33491700"><ele>558</ele><time>2007-05-15T08:12:44Z</time></trkpt>
<trkpt lat="43.14008300" lon="0.33495000"><ele>558</ele><time>2007-05-15T08:12:55Z</time></trkpt>
<trkpt lat="43.13916700" lon="0.33493300"><ele>558</ele><time>2007-05-15T08:13:20Z</time></trkpt>
<trkpt lat="43.13888300" lon="0.33501700"><ele>558</ele><time>2007-05-15T08:13:31Z</time></trkpt>
<trkpt lat="43.13873300" lon="0.33500000"><ele>558</ele><time>2007-05-15T08:13:42Z</time></trkpt>
<trkpt lat="43.13851700" lon="0.33493300"><ele>567</ele><time>2007-05-15T08:13:49Z</time></trkpt>
<trkpt lat="43.13830000" lon="0.33493300"><ele>563</ele><time>2007-05-15T08:14:01Z</time></trkpt>
<trkpt lat="43.13796700" lon="0.33498300"><ele>552</ele><time>2007-05-15T08:14:19Z</time></trkpt>
<trkpt lat="43.13780000" lon="0.33500000"><ele>553</ele><time>2007-05-15T08:14:38Z</time></trkpt>
<trkpt lat="43.13751700" lon="0.33485000"><ele>553</ele><time>2007-05-15T08:14:55Z</time></trkpt>
<trkpt lat="43.13721700" lon="0.33450000"><ele>554</ele><time>2007-05-15T08:15:08Z</time></trkpt>
<trkpt lat="43.13700000" lon="0.33440000"><ele>559</ele><time>2007-05-15T08:15:17Z</time></trkpt>
<trkpt lat="43.13665000" lon="0.33428300"><ele>560</ele><time>2007-05-15T08:15:34Z</time></trkpt>
<trkpt lat="43.13640000" lon="0.33406700"><ele>574</ele><time>2007-05-15T08:15:55Z</time></trkpt>
<trkpt lat="43.13613300" lon="0.33403300"><ele>574</ele><time>2007-05-15T08:16:03Z</time></trkpt>
<trkpt lat="43.13570000" lon="0.33378300"><ele>573</ele><time>2007-05-15T08:16:20Z</time></trkpt>
<trkpt lat="43.13548300" lon="0.33360000"><ele>572</ele><time>2007-05-15T08:16:33Z</time></trkpt>
<trkpt lat="43.13520000" lon="0.33350000"><ele>572</ele><time>2007-05-15T08:16:46Z</time></trkpt>
<trkpt lat="43.13493300" lon="0.33336700"><ele>569</ele><time>2007-05-15T08:16:56Z</time></trkpt>
<trkpt lat="43.13455000" lon="0.33333300"><ele>568</ele><time>2007-05-15T08:17:05Z</time></trkpt>
<trkpt lat="43.13460000" lon="0.33310000"><ele>568</ele><time>2007-05-15T08:17:09Z</time></trkpt>
<trkpt lat="43.13458300" lon="0.33276700"><ele>566</ele><time>2007-05-15T08:17:18Z</time></trkpt>
<trkpt lat="43.13440000" lon="0.33253300"><ele>562</ele><time>2007-05-15T08:17:26Z</time></trkpt>
<trkpt lat="43.13455000" lon="0.33220000"><ele>562</ele><time>2007-05-15T08:17:43Z</time></trkpt>
<trkpt lat="43.13461700" lon="0.33175000"><ele>563</ele><time>2007-05-15T08:17:54Z</time></trkpt>
<trkpt lat="43.13475000" lon="0.33130000"><ele>563</ele><time>2007-05-15T08:18:08Z</time></trkpt>
<trkpt lat="43.13475000" lon="0.33101700"><ele>561</ele><time>2007-05-15T08:18:14Z</time></trkpt>
<trkpt lat="43.13465000" lon="0.33056700"><ele>556</ele><time>2007-05-15T08:18:27Z</time></trkpt>
<trkpt lat="43.13483300" lon="0.33035000"><ele>558</ele><time>2007-05-15T08:18:39Z</time></trkpt>
<trkpt lat="43.13518300" lon="0.33016700"><ele>560</ele><time>2007-05-15T08:18:55Z</time></trkpt>
<trkpt lat="43.13545000" lon="0.33010000"><ele>555</ele><time>2007-05-15T08:19:08Z</time></trkpt>
<trkpt lat="43.13700000" lon="0.32975000"><ele>572</ele><time>2007-05-15T08:20:20Z</time></trkpt>
<trkpt lat="43.13705000" lon="0.32918300"><ele>571</ele><time>2007-05-15T08:20:37Z</time></trkpt>
<trkpt lat="43.13698300" lon="0.32856700"><ele>571</ele><time>2007-05-15T08:20:50Z</time></trkpt>
<trkpt lat="43.13678300" lon="0.32825000"><ele>571</ele><time>2007-05-15T08:20:59Z</time></trkpt>
<trkpt lat="43.13568300" lon="0.32806700"><ele>570</ele><time>2007-05-15T08:21:22Z</time></trkpt>
<trkpt lat="43.13201700" lon="0.32878300"><ele>576</ele><time>2007-05-15T08:22:35Z</time></trkpt>
<trkpt lat="43.13080000" lon="0.32938300"><ele>579</ele><time>2007-05-15T08:23:04Z</time></trkpt>
<trkpt lat="43.13058300" lon="0.32953300"><ele>579</ele><time>2007-05-15T08:23:11Z</time></trkpt>
<trkpt lat="43.13098300" lon="0.33125000"><ele>568</ele><time>2007-05-15T08:23:31Z</time></trkpt>
<trkpt lat="43.13046700" lon="0.33173300"><ele>564</ele><time>2007-05-15T08:23:46Z</time></trkpt>
<trkpt lat="43.13021700" lon="0.33206700"><ele>561</ele><time>2007-05-15T08:23:52Z</time></trkpt>
<trkpt lat="43.13043300" lon="0.33266700"><ele>561</ele><time>2007-05-15T08:24:05Z</time></trkpt>
<trkpt lat="43.13056700" lon="0.33388300"><ele>551</ele><time>2007-05-15T08:24:22Z</time></trkpt>
<trkpt lat="43.13068300" lon="0.33456700"><ele>549</ele><time>2007-05-15T08:24:32Z</time></trkpt>
<trkpt lat="43.13088300" lon="0.33496700"><ele>514</ele><time>2007-05-15T08:24:39Z</time></trkpt>
<trkpt lat="43.13103300" lon="0.33513300"><ele>514</ele><time>2007-05-15T08:24:45Z</time></trkpt>
<trkpt lat="43.13076700" lon="0.33605000"><ele>514</ele><time>2007-05-15T08:25:06Z</time></trkpt>
<trkpt lat="43.13065000" lon="0.33621700"><ele>510</ele><time>2007-05-15T08:25:12Z</time></trkpt>
<trkpt lat="43.13050000" lon="0.33635000"><ele>496</ele><time>2007-05-15T08:25:37Z</time></trkpt>
<trkpt lat="43.13071700" lon="0.33673300"><ele>502</ele><time>2007-05-15T08:26:20Z</time></trkpt>
<trkpt lat="43.13078300" lon="0.33700000"><ele>502</ele><time>2007-05-15T08:26:32Z</time></trkpt>
<trkpt lat="43.13088300" lon="0.33725000"><ele>512</ele><time>2007-05-15T08:27:13Z</time></trkpt>
<trkpt lat="43.13095000" lon="0.33748300"><ele>527</ele><time>2007-05-15T08:27:50Z</time></trkpt>
<trkpt lat="43.13110000" lon="0.33773300"><ele>532</ele><time>2007-05-15T08:28:19Z</time></trkpt>
<trkpt lat="43.13118300" lon="0.33790000"><ele>537</ele><time>2007-05-15T08:28:41Z</time></trkpt>
<trkpt lat="43.13126700" lon="0.33808300"><ele>543</ele><time>2007-05-15T08:29:07Z</time></trkpt>
<trkpt lat="43.13141700" lon="0.33813300"><ele>548</ele><time>2007-05-15T08:29:16Z</time></trkpt>
<trkpt lat="43.13155000" lon="0.33831700"><ele>550</ele><time>2007-05-15T08:29:33Z</time></trkpt>
<trkpt lat="43.13161700" lon="0.33851700"><ele>558</ele><time>2007-05-15T08:30:03Z</time></trkpt>
<trkpt lat="43.13168300" lon="0.33863300"><ele>569</ele><time>2007-05-15T08:30:51Z</time></trkpt>
<trkpt lat="43.13163300" lon="0.33883300"><ele>576</ele><time>2007-05-15T08:31:20Z</time></trkpt>
<trkpt lat="43.13148300" lon="0.33911700"><ele>585</ele><time>2007-05-15T08:32:05Z</time></trkpt>
<trkpt lat="43.13131700" lon="0.33943300"><ele>589</ele><time>2007-05-15T08:32:39Z</time></trkpt>
<trkpt lat="43.13115000" lon="0.33956700"><ele>588</ele><time>2007-05-15T08:32:56Z</time></trkpt>
<trkpt lat="43.13091700" lon="0.33980000"><ele>582</ele><time>2007-05-15T08:33:19Z</time></trkpt>
<trkpt lat="43.13076700" lon="0.33986700"><ele>586</ele><time>2007-05-15T08:33:31Z</time></trkpt>
<trkpt lat="43.13055000" lon="0.34010000"><ele>590</ele><time>2007-05-15T08:33:52Z</time></trkpt>
<trkpt lat="43.13033300" lon="0.34060000"><ele>592</ele><time>2007-05-15T08:34:12Z</time></trkpt>
<trkpt lat="43.13021700" lon="0.34091700"><ele>587</ele><time>2007-05-15T08:34:26Z</time></trkpt>
<trkpt lat="43.13005000" lon="0.34110000"><ele>591</ele><time>2007-05-15T08:34:41Z</time></trkpt>
<trkpt lat="43.13000000" lon="0.34145000"><ele>592</ele><time>2007-05-15T08:34:54Z</time></trkpt>
<trkpt lat="43.12983300" lon="0.34135000"><ele>593</ele><time>2007-05-15T08:35:05Z</time></trkpt>
<trkpt lat="43.12958300" lon="0.34141700"><ele>602</ele><time>2007-05-15T08:35:26Z</time></trkpt>
<trkpt lat="43.12930000" lon="0.34148300"><ele>605</ele><time>2007-05-15T08:35:46Z</time></trkpt>
<trkpt lat="43.12908300" lon="0.34156700"><ele>607</ele><time>2007-05-15T08:36:01Z</time></trkpt>
<trkpt lat="43.12888300" lon="0.34160000"><ele>610</ele><time>2007-05-15T08:36:16Z</time></trkpt>
<trkpt lat="43.12865000" lon="0.34166700"><ele>611</ele><time>2007-05-15T08:36:31Z</time></trkpt>
<trkpt lat="43.12841700" lon="0.34178300"><ele>612</ele><time>2007-05-15T08:36:45Z</time></trkpt>
<trkpt lat="43.12780000" lon="0.34221700"><ele>607</ele><time>2007-05-15T08:37:08Z</time></trkpt>
<trkpt lat="43.12705000" lon="0.34326700"><ele>604</ele><time>2007-05-15T08:37:52Z</time></trkpt>
<trkpt lat="43.12676700" lon="0.34365000"><ele>604</ele><time>2007-05-15T08:38:10Z</time></trkpt>
<trkpt lat="43.12668300" lon="0.34383300"><ele>606</ele><time>2007-05-15T08:38:18Z</time></trkpt>
<trkpt lat="43.12665000" lon="0.34430000"><ele>607</ele><time>2007-05-15T08:38:35Z</time></trkpt>
<trkpt lat="43.12663300" lon="0.34488300"><ele>608</ele><time>2007-05-15T08:38:52Z</time></trkpt>
<trkpt lat="43.12670000" lon="0.34505000"><ele>606</ele><time>2007-05-15T08:39:19Z</time></trkpt>
<trkpt lat="43.12673300" lon="0.34543300"><ele>603</ele><time>2007-05-15T08:40:39Z</time></trkpt>
<trkpt lat="43.12688300" lon="0.34591700"><ele>601</ele><time>2007-05-15T08:40:50Z</time></trkpt>
<trkpt lat="43.12711700" lon="0.34645000"><ele>600</ele><time>2007-05-15T08:40:58Z</time></trkpt>
<trkpt lat="43.12778300" lon="0.34720000"><ele>589</ele><time>2007-05-15T08:41:08Z</time></trkpt>
<trkpt lat="43.12801700" lon="0.34776700"><ele>587</ele><time>2007-05-15T08:41:20Z</time></trkpt>
<trkpt lat="43.12798300" lon="0.34813300"><ele>588</ele><time>2007-05-15T08:41:28Z</time></trkpt>
<trkpt lat="43.12766700" lon="0.34868300"><ele>588</ele><time>2007-05-15T08:41:42Z</time></trkpt>
<trkpt lat="43.12723300" lon="0.35043300"><ele>599</ele><time>2007-05-15T08:42:24Z</time></trkpt>
<trkpt lat="43.12720000" lon="0.35080000"><ele>600</ele><time>2007-05-15T08:42:35Z</time></trkpt>
<trkpt lat="43.12721700" lon="0.35128300"><ele>597</ele><time>2007-05-15T08:43:18Z</time></trkpt>
<trkpt lat="43.12723300" lon="0.35155000"><ele>596</ele><time>2007-05-15T08:43:24Z</time></trkpt>
<trkpt lat="43.12721700" lon="0.35328300"><ele>597</ele><time>2007-05-15T08:44:06Z</time></trkpt>
<trkpt lat="43.12718300" lon="0.35363300"><ele>595</ele><time>2007-05-15T08:44:12Z</time></trkpt>
<trkpt lat="43.12735000" lon="0.35386700"><ele>593</ele><time>2007-05-15T08:44:19Z</time></trkpt>
<trkpt lat="43.12780000" lon="0.35380000"><ele>591</ele><time>2007-05-15T08:44:30Z</time></trkpt>
<trkpt lat="43.12853300" lon="0.35380000"><ele>589</ele><time>2007-05-15T08:44:49Z</time></trkpt>
<trkpt lat="43.12905000" lon="0.35373300"><ele>587</ele><time>2007-05-15T08:45:01Z</time></trkpt>
<trkpt lat="43.12995000" lon="0.35375000"><ele>588</ele><time>2007-05-15T08:45:20Z</time></trkpt>
<trkpt lat="43.13045000" lon="0.35385000"><ele>588</ele><time>2007-05-15T08:46:27Z</time></trkpt>
<trkpt lat="43.13201700" lon="0.35396700"><ele>586</ele><time>2007-05-15T08:47:56Z</time></trkpt>
<trkpt lat="43.13500000" lon="0.35325000"><ele>583</ele><time>2007-05-15T08:49:18Z</time></trkpt>
<trkpt lat="43.13648300" lon="0.35313300"><ele>583</ele><time>2007-05-15T08:50:04Z</time></trkpt>
<trkpt lat="43.13715000" lon="0.35325000"><ele>582</ele><time>2007-05-15T08:50:24Z</time></trkpt>
<trkpt lat="43.13888300" lon="0.35425000"><ele>582</ele><time>2007-05-15T08:51:27Z</time></trkpt>
<trkpt lat="43.13910000" lon="0.35410000"><ele>584</ele><time>2007-05-15T08:51:36Z</time></trkpt>
<trkpt lat="43.13981700" lon="0.35138300"><ele>580</ele><time>2007-05-15T08:52:38Z</time></trkpt>
<trkpt lat="43.14131700" lon="0.35148300"><ele>574</ele><time>2007-05-15T08:53:32Z</time></trkpt>
<trkpt lat="43.14363300" lon="0.35211700"><ele>568</ele><time>2007-05-15T08:54:33Z</time></trkpt>
<trkpt lat="43.14463300" lon="0.35223300"><ele>569</ele><time>2007-05-15T08:54:59Z</time></trkpt>
<trkpt lat="43.14483300" lon="0.35200000"><ele>571</ele><time>2007-05-15T08:55:15Z</time></trkpt>
<trkpt lat="43.14508300" lon="0.35151700"><ele>568</ele><time>2007-05-15T08:55:27Z</time></trkpt>
<trkpt lat="43.14601700" lon="0.34906700"><ele>563</ele><time>2007-05-15T08:56:15Z</time></trkpt>
<trkpt lat="43.14606700" lon="0.34835000"><ele>560</ele><time>2007-05-15T08:56:27Z</time></trkpt>
<trkpt lat="43.14596700" lon="0.34766700"><ele>556</ele><time>2007-05-15T08:56:38Z</time></trkpt>
<trkpt lat="43.14605000" lon="0.34711700"><ele>553</ele><time>2007-05-15T08:56:52Z</time></trkpt>
<trkpt lat="43.14603300" lon="0.34665000"><ele>552</ele><time>2007-05-15T08:56:58Z</time></trkpt>
<trkpt lat="43.14603300" lon="0.34623300"><ele>552</ele><time>2007-05-15T08:57:06Z</time></trkpt>
<trkpt lat="43.14610000" lon="0.34550000"><ele>552</ele><time>2007-05-15T08:57:21Z</time></trkpt>
<trkpt lat="43.14618300" lon="0.34506700"><ele>552</ele><time>2007-05-15T08:57:32Z</time></trkpt>
<trkpt lat="43.14626700" lon="0.34486700"><ele>552</ele><time>2007-05-15T08:57:36Z</time></trkpt>
<trkpt lat="43.14655000" lon="0.34436700"><ele>551</ele><time>2007-05-15T08:57:53Z</time></trkpt>
<trkpt lat="43.14833300" lon="0.34310000"><ele>551</ele><time>2007-05-15T08:58:32Z</time></trkpt>
<trkpt lat="43.14865000" lon="0.34290000"><ele>549</ele><time>2007-05-15T08:58:39Z</time></trkpt>
<trkpt lat="43.14911700" lon="0.34235000"><ele>550</ele><time>2007-05-15T08:58:53Z</time></trkpt>
<trkpt lat="43.14946700" lon="0.34221700"><ele>550</ele><time>2007-05-15T08:59:02Z</time></trkpt>
<trkpt lat="43.14980000" lon="0.34221700"><ele>550</ele><time>2007-05-15T08:59:07Z</time></trkpt>
<trkpt lat="43.14995000" lon="0.34205000"><ele>513</ele><time>2007-05-15T08:59:27Z</time></trkpt>
<trkpt lat="43.15018300" lon="0.34200000"><ele>521</ele><time>2007-05-15T08:59:56Z</time></trkpt>
<trkpt lat="43.15036700" lon="0.34183300"><ele>521</ele><time>2007-05-15T09:00:08Z</time></trkpt>
<trkpt lat="43.15055000" lon="0.34160000"><ele>477</ele><time>2007-05-15T09:00:21Z</time></trkpt>
<trkpt lat="43.15086700" lon="0.34150000"><ele>495</ele><time>2007-05-15T09:00:33Z</time></trkpt>
<trkpt lat="43.15105000" lon="0.34115000"><ele>493</ele><time>2007-05-15T09:00:42Z</time></trkpt>
<trkpt lat="43.15126700" lon="0.34068300"><ele>493</ele><time>2007-05-15T09:00:53Z</time></trkpt>
<trkpt lat="43.15151700" lon="0.34051700"><ele>493</ele><time>2007-05-15T09:01:06Z</time></trkpt>
<trkpt lat="43.15156700" lon="0.34028300"><ele>495</ele><time>2007-05-15T09:01:11Z</time></trkpt>
<trkpt lat="43.15166700" lon="0.34011700"><ele>487</ele><time>2007-05-15T09:01:21Z</time></trkpt>
<trkpt lat="43.15180000" lon="0.33983300"><ele>483</ele><time>2007-05-15T09:01:28Z</time></trkpt>
<trkpt lat="43.15195000" lon="0.33978300"><ele>485</ele><time>2007-05-15T09:01:40Z</time></trkpt>
<trkpt lat="43.15218300" lon="0.34006700"><ele>481</ele><time>2007-05-15T09:02:00Z</time></trkpt>
<trkpt lat="43.15240000" lon="0.34006700"><ele>482</ele><time>2007-05-15T09:02:14Z</time></trkpt>
<trkpt lat="43.15258300" lon="0.33976700"><ele>487</ele><time>2007-05-15T09:02:42Z</time></trkpt>
<trkpt lat="43.15246700" lon="0.33955000"><ele>487</ele><time>2007-05-15T09:02:46Z</time></trkpt>
<trkpt lat="43.15243300" lon="0.33928300"><ele>486</ele><time>2007-05-15T09:02:58Z</time></trkpt>
<trkpt lat="43.15233300" lon="0.33890000"><ele>485</ele><time>2007-05-15T09:03:12Z</time></trkpt>
<trkpt lat="43.15226700" lon="0.33858300"><ele>486</ele><time>2007-05-15T09:03:26Z</time></trkpt>
<trkpt lat="43.15218300" lon="0.33821700"><ele>486</ele><time>2007-05-15T09:03:37Z</time></trkpt>
<trkpt lat="43.15221700" lon="0.33793300"><ele>495</ele><time>2007-05-15T09:04:18Z</time></trkpt>
<trkpt lat="43.15240000" lon="0.33760000"><ele>480</ele><time>2007-05-15T09:05:04Z</time></trkpt>
<trkpt lat="43.15316700" lon="0.33688300"><ele>475</ele><time>2007-05-15T09:05:58Z</time></trkpt>
<trkpt lat="43.15328300" lon="0.33673300"><ele>477</ele><time>2007-05-15T09:06:09Z</time></trkpt>
<trkpt lat="43.15363300" lon="0.33631700"><ele>483</ele><time>2007-05-15T09:06:35Z</time></trkpt>
<trkpt lat="43.15380000" lon="0.33608300"><ele>486</ele><time>2007-05-15T09:06:50Z</time></trkpt>
<trkpt lat="43.15393300" lon="0.33586700"><ele>489</ele><time>2007-05-15T09:07:05Z</time></trkpt>
<trkpt lat="43.15395000" lon="0.33563300"><ele>497</ele><time>2007-05-15T09:07:24Z</time></trkpt>
<trkpt lat="43.15393300" lon="0.33538300"><ele>500</ele><time>2007-05-15T09:07:42Z</time></trkpt>
<trkpt lat="43.15418300" lon="0.33528300"><ele>505</ele><time>2007-05-15T09:08:20Z</time></trkpt>
<trkpt lat="43.15440000" lon="0.33515000"><ele>512</ele><time>2007-05-15T09:08:45Z</time></trkpt>
<trkpt lat="43.15468300" lon="0.33483300"><ele>505</ele><time>2007-05-15T09:09:11Z</time></trkpt>
<trkpt lat="43.15483300" lon="0.33470000"><ele>502</ele><time>2007-05-15T09:09:23Z</time></trkpt>
<trkpt lat="43.15501700" lon="0.33453300"><ele>500</ele><time>2007-05-15T09:09:37Z</time></trkpt>
<trkpt lat="43.15528300" lon="0.33433300"><ele>499</ele><time>2007-05-15T09:09:56Z</time></trkpt>
<trkpt lat="43.15546700" lon="0.33398300"><ele>505</ele><time>2007-05-15T09:10:12Z</time></trkpt>
<trkpt lat="43.15560000" lon="0.33336700"><ele>506</ele><time>2007-05-15T09:10:36Z</time></trkpt>
<trkpt lat="43.15555000" lon="0.33311700"><ele>508</ele><time>2007-05-15T09:10:51Z</time></trkpt>
<trkpt lat="43.15548300" lon="0.33293300"><ele>516</ele><time>2007-05-15T09:11:07Z</time></trkpt>
<trkpt lat="43.15543300" lon="0.33275000"><ele>518</ele><time>2007-05-15T09:11:19Z</time></trkpt>
<trkpt lat="43.15543300" lon="0.33235000"><ele>518</ele><time>2007-05-15T09:11:39Z</time></trkpt>
<trkpt lat="43.15543300" lon="0.33190000"><ele>520</ele><time>2007-05-15T09:12:00Z</time></trkpt>
<trkpt lat="43.15528300" lon="0.33146700"><ele>516</ele><time>2007-05-15T09:12:23Z</time></trkpt>
<trkpt lat="43.15525000" lon="0.33085000"><ele>519</ele><time>2007-05-15T09:12:48Z</time></trkpt>
<trkpt lat="43.15528300" lon="0.33021700"><ele>521</ele><time>2007-05-15T09:13:10Z</time></trkpt>
<trkpt lat="43.15523300" lon="0.32990000"><ele>525</ele><time>2007-05-15T09:13:24Z</time></trkpt>
<trkpt lat="43.15518300" lon="0.32913300"><ele>534</ele><time>2007-05-15T09:14:00Z</time></trkpt>
<trkpt lat="43.15528300" lon="0.32895000"><ele>537</ele><time>2007-05-15T09:14:16Z</time></trkpt>
<trkpt lat="43.15558300" lon="0.32911700"><ele>542</ele><time>2007-05-15T09:14:45Z</time></trkpt>
<trkpt lat="43.15596700" lon="0.32913300"><ele>547</ele><time>2007-05-15T09:15:18Z</time></trkpt>
<trkpt lat="43.15621700" lon="0.32910000"><ele>550</ele><time>2007-05-15T09:15:35Z</time></trkpt>
<trkpt lat="43.15641700" lon="0.32883300"><ele>551</ele><time>2007-05-15T09:15:53Z</time></trkpt>
<trkpt lat="43.15656700" lon="0.32845000"><ele>555</ele><time>2007-05-15T09:16:09Z</time></trkpt>
<trkpt lat="43.15650000" lon="0.32826700"><ele>558</ele><time>2007-05-15T09:16:21Z</time></trkpt>
<trkpt lat="43.15598300" lon="0.32790000"><ele>562</ele><time>2007-05-15T09:16:45Z</time></trkpt>
<trkpt lat="43.15533300" lon="0.32780000"><ele>568</ele><time>2007-05-15T09:17:10Z</time></trkpt>
<trkpt lat="43.15541700" lon="0.32760000"><ele>545</ele><time>2007-05-15T09:20:42Z</time></trkpt>
<trkpt lat="43.15521700" lon="0.32751700"><ele>548</ele><time>2007-05-15T09:25:59Z</time></trkpt>
<trkpt lat="43.15500000" lon="0.32636700"><ele>542</ele><time>2007-05-15T09:26:29Z</time></trkpt>
<trkpt lat="43.15496700" lon="0.32583300"><ele>539</ele><time>2007-05-15T09:26:38Z</time></trkpt>
<trkpt lat="43.15528300" lon="0.32526700"><ele>537</ele><time>2007-05-15T09:26:44Z</time></trkpt>
<trkpt lat="43.15698300" lon="0.32450000"><ele>542</ele><time>2007-05-15T09:27:00Z</time></trkpt>
<trkpt lat="43.15731700" lon="0.32418300"><ele>543</ele><time>2007-05-15T09:27:09Z</time></trkpt>
<trkpt lat="43.15781700" lon="0.32321700"><ele>547</ele><time>2007-05-15T09:27:41Z</time></trkpt>
<trkpt lat="43.15825000" lon="0.32180000"><ele>546</ele><time>2007-05-15T09:28:16Z</time></trkpt>
<trkpt lat="43.15938300" lon="0.32000000"><ele>543</ele><time>2007-05-15T09:29:08Z</time></trkpt>
<trkpt lat="43.16091700" lon="0.31813300"><ele>551</ele><time>2007-05-15T09:30:24Z</time></trkpt>
<trkpt lat="43.16108300" lon="0.31786700"><ele>552</ele><time>2007-05-15T09:30:32Z</time></trkpt>
<trkpt lat="43.16145000" lon="0.31735000"><ele>560</ele><time>2007-05-15T09:30:51Z</time></trkpt>
<trkpt lat="43.16173300" lon="0.31678300"><ele>559</ele><time>2007-05-15T09:31:06Z</time></trkpt>
<trkpt lat="43.16195000" lon="0.31655000"><ele>558</ele><time>2007-05-15T09:31:14Z</time></trkpt>
<trkpt lat="43.16381700" lon="0.31601700"><ele>557</ele><time>2007-05-15T09:31:58Z</time></trkpt>
<trkpt lat="43.16835000" lon="0.31248300"><ele>539</ele><time>2007-05-15T09:33:20Z</time></trkpt>
<trkpt lat="43.17050000" lon="0.31175000"><ele>536</ele><time>2007-05-15T09:33:57Z</time></trkpt>
<trkpt lat="43.17138300" lon="0.31038300"><ele>530</ele><time>2007-05-15T09:34:18Z</time></trkpt>
<trkpt lat="43.17236700" lon="0.30633300"><ele>529</ele><time>2007-05-15T09:35:15Z</time></trkpt>
<trkpt lat="43.17251700" lon="0.30121700"><ele>524</ele><time>2007-05-15T09:36:25Z</time></trkpt>
<trkpt lat="43.17231700" lon="0.29678300"><ele>517</ele><time>2007-05-15T09:37:22Z</time></trkpt>
<trkpt lat="43.17255000" lon="0.29571700"><ele>520</ele><time>2007-05-15T09:37:38Z</time></trkpt>
<trkpt lat="43.17278300" lon="0.29301700"><ele>522</ele><time>2007-05-15T09:38:20Z</time></trkpt>
<trkpt lat="43.17271700" lon="0.29208300"><ele>519</ele><time>2007-05-15T09:38:33Z</time></trkpt>
<trkpt lat="43.17253300" lon="0.29095000"><ele>514</ele><time>2007-05-15T09:38:46Z</time></trkpt>
<trkpt lat="43.17261700" lon="0.29038300"><ele>513</ele><time>2007-05-15T09:38:52Z</time></trkpt>
<trkpt lat="43.17300000" lon="0.29051700"><ele>517</ele><time>2007-05-15T09:39:01Z</time></trkpt>
<trkpt lat="43.17550000" lon="0.29156700"><ele>524</ele><time>2007-05-15T09:40:14Z</time></trkpt>
<trkpt lat="43.17580000" lon="0.29166700"><ele>523</ele><time>2007-05-15T09:40:25Z</time></trkpt>
<trkpt lat="43.17638300" lon="0.28920000"><ele>516</ele><time>2007-05-15T09:40:58Z</time></trkpt>
<trkpt lat="43.17646700" lon="0.28863300"><ele>513</ele><time>2007-05-15T09:41:35Z</time></trkpt>
<trkpt lat="43.17668300" lon="0.28741700"><ele>511</ele><time>2007-05-15T09:42:27Z</time></trkpt>
<trkpt lat="43.17680000" lon="0.28703300"><ele>512</ele><time>2007-05-15T09:42:33Z</time></trkpt>
</trkseg></trk></gpx>